Time;durP1;ratioP1;P1;durP2;ratioP2;P2;SDS_P1;SDS_P2;PMS_P1;PMS_P2;Temp;Humidity;BMP_temperature;BMP_pressure;BME280_temperature;BME280_humidity;BME280_pressure;Samples;Min_cycle;Max_cycle;Signal;HPM_P1;HPM_P2
2023/07/24 00:03:35;;;;;;;7.05;4.20;;;20.90;99.80;;;;;;10454436;28;20533;-41
2023/07/24 00:08:37;;;;;;;5.43;3.55;;;20.90;99.70;;;;;;10453931;28;20080;-39
2023/07/24 00:13:40;;;;;;;10.02;4.15;;;20.90;99.30;;;;;;10454430;28;20451;-40
2023/07/24 00:18:42;;;;;;;10.77;4.72;;;20.90;99.20;;;;;;10445473;28;20438;-38
2023/07/24 00:23:43;;;;;;;12.10;4.45;;;20.60;99.90;;;;;;10455649;28;20068;-40
2023/07/24 00:28:47;;;;;;;5.55;3.90;;;20.50;99.90;;;;;;10450908;28;20692;-40
2023/07/24 00:33:48;;;;;;;6.50;3.72;;;20.20;99.90;;;;;;10446748;28;20517;-41
2023/07/24 00:38:50;;;;;;;6.88;3.85;;;20.60;99.90;;;;;;10446589;28;20132;-39
2023/07/24 00:43:53;;;;;;;9.77;4.43;;;21.10;98.90;;;;;;10444005;28;20474;-40
2023/07/24 00:48:55;;;;;;;14.00;5.25;;;20.40;99.90;;;;;;10451293;28;20454;-41
2023/07/24 00:53:57;;;;;;;8.43;4.07;;;21.10;98.60;;;;;;10446195;28;20139;-41
2023/07/24 00:59:02;;;;;;;7.78;3.85;;;21.10;98.30;;;;;;10450831;28;20076;-41
2023/07/24 01:04:06;;;;;;;9.48;3.95;;;20.30;99.90;;;;;;10455456;28;20135;-41
2023/07/24 01:09:08;;;;;;;11.55;3.90;;;20.90;99.50;;;;;;10449065;28;20139;-41
2023/07/24 01:14:17;;;;;;;9.80;3.83;;;20.90;99.40;;;;;;10438449;28;20056;-40
2023/07/24 01:19:33;;;;;;;5.97;3.40;;;20.20;99.90;;;;;;10444983;28;20077;-41
2023/07/24 01:24:47;;;;;;;12.70;3.72;;;20.30;99.90;;;;;;10449736;28;20596;-41
2023/07/24 01:29:50;;;;;;;7.53;3.08;;;20.20;99.90;;;;;;10446852;28;20045;-41
2023/07/24 01:34:52;;;;;;;8.98;3.70;;;20.50;99.90;;;;;;10444130;28;20128;-40
2023/07/24 01:39:56;;;;;;;6.13;3.88;;;20.00;99.90;;;;;;10449562;28;20085;-41
2023/07/24 01:45:03;;;;;;;8.70;4.00;;;20.40;99.90;;;;;;10446336;28;20107;-41
2023/07/24 01:50:05;;;;;;;7.10;3.20;;;20.70;99.20;;;;;;10442155;28;20480;-39
2023/07/24 01:55:09;;;;;;;14.98;3.40;;;21.00;99.10;;;;;;10447529;28;20124;-39
2023/07/24 02:00:13;;;;;;;10.65;3.42;;;20.70;99.60;;;;;;10442048;28;20045;-40
2023/07/24 02:05:15;;;;;;;6.85;3.13;;;21.80;95.40;;;;;;10446620;28;20134;-40
2023/07/24 02:10:16;;;;;;;11.93;3.63;;;20.60;99.90;;;;;;10441047;28;20111;-41
2023/07/24 02:15:20;;;;;;;11.68;3.70;;;21.40;96.80;;;;;;10447118;28;20088;-41
2023/07/24 02:20:21;;;;;;;9.07;2.85;;;20.40;99.90;;;;;;10447152;28;20037;-40
2023/07/24 02:25:23;;;;;;;8.60;3.40;;;20.40;99.90;;;;;;10445235;28;20080;-42
2023/07/24 02:30:27;;;;;;;10.07;3.22;;;21.20;97.90;;;;;;10458444;28;20068;-43
2023/07/24 02:35:28;;;;;;;9.07;3.03;;;20.90;98.70;;;;;;10444702;28;20103;-42
2023/07/24 02:40:30;;;;;;;8.07;3.58;;;20.60;99.20;;;;;;10448701;28;20081;-42
2023/07/24 02:45:36;;;;;;;13.98;3.20;;;21.50;96.40;;;;;;10451320;28;20670;-42
2023/07/24 02:50:38;;;;;;;14.75;4.68;;;21.30;96.00;;;;;;10447296;28;20099;-41
2023/07/24 02:55:43;;;;;;;17.35;4.05;;;20.50;99.90;;;;;;10450774;28;20051;-40
2023/07/24 03:15:30;;;;;;;13.65;3.78;;;20.70;99.20;;;;;;10515554;27;20114;-41
2023/07/24 03:20:32;;;;;;;12.15;3.90;;;20.50;99.90;;;;;;10488022;28;20048;-40
2023/07/24 03:25:35;;;;;;;8.57;2.90;;;20.30;99.90;;;;;;10485932;28;20049;-40
2023/07/24 03:30:38;;;;;;;9.60;2.97;;;21.00;98.20;;;;;;10482440;28;20113;-41
2023/07/24 03:35:40;;;;;;;7.57;2.85;;;21.90;94.60;;;;;;10488128;28;20107;-40
2023/07/24 03:40:42;;;;;;;10.18;3.50;;;22.20;92.60;;;;;;10484946;28;20618;-41
2023/07/24 03:45:46;;;;;;;7.20;3.33;;;21.30;96.90;;;;;;10485442;28;20056;-40
2023/07/24 03:50:48;;;;;;;10.25;3.40;;;22.00;95.00;;;;;;10488912;28;20056;-41
2023/07/24 03:55:50;;;;;;;6.82;2.85;;;21.70;94.50;;;;;;10493936;28;20051;-41
2023/07/24 04:00:53;;;;;;;8.98;2.95;;;21.60;95.60;;;;;;10489210;28;20044;-41
2023/07/24 04:05:55;;;;;;;11.13;3.55;;;21.50;95.10;;;;;;10487571;28;20164;-41
2023/07/24 04:10:56;;;;;;;15.68;3.58;;;21.10;97.90;;;;;;10485115;28;20148;-41
2023/07/24 04:16:00;;;;;;;9.10;3.55;;;21.10;98.30;;;;;;10484910;28;20047;-41
2023/07/24 04:21:02;;;;;;;7.13;3.30;;;21.40;97.00;;;;;;10472855;28;20049;-41
2023/07/24 04:26:03;;;;;;;8.80;2.60;;;21.10;97.70;;;;;;10459019;28;20048;-41
2023/07/24 04:31:07;;;;;;;8.95;2.75;;;22.50;91.90;;;;;;10467889;28;20078;-41
2023/07/24 04:36:08;;;;;;;5.30;2.80;;;22.60;91.70;;;;;;10455519;28;20040;-41
2023/07/24 04:41:10;;;;;;;6.13;2.83;;;22.70;91.50;;;;;;10454522;28;20083;-40
2023/07/24 04:46:13;;;;;;;;;;;23.30;89.10;;;;;;10456811;28;20041;-41
2023/07/24 04:51:15;;;;;;;3.00;2.20;;;23.60;85.50;;;;;;10453859;28;20014;-41
2023/07/24 04:56:17;;;;;;;;;;;23.30;87.80;;;;;;10458360;28;20498;-41
2023/07/24 05:01:20;;;;;;;4.93;2.70;;;23.00;90.40;;;;;;10462010;28;19928;-41
2023/07/24 05:06:23;;;;;;;10.48;3.15;;;23.60;86.30;;;;;;10460094;28;20124;-41
2023/07/24 05:11:25;;;;;;;7.28;2.53;;;23.50;86.40;;;;;;10456677;28;20558;-40
2023/07/24 05:16:28;;;;;;;9.15;3.08;;;23.10;90.60;;;;;;10455913;28;20124;-41
2023/07/24 05:21:30;;;;;;;8.40;3.08;;;23.10;90.20;;;;;;10457045;28;20331;-42
2023/07/24 05:26:32;;;;;;;8.98;3.35;;;22.80;91.30;;;;;;10459866;28;20089;-41
2023/07/24 05:31:36;;;;;;;13.20;3.95;;;23.00;91.30;;;;;;10450926;28;20136;-41
2023/07/24 05:36:38;;;;;;;7.82;2.78;;;23.00;91.10;;;;;;10449386;28;20072;-41
2023/07/24 05:41:40;;;;;;;;;;;23.70;86.50;;;;;;10450411;28;20044;-41
2023/07/24 05:46:43;;;;;;;7.75;2.58;;;23.50;88.60;;;;;;10448777;28;20008;-41
2023/07/24 05:51:45;;;;;;;5.80;2.58;;;23.50;88.10;;;;;;10449690;28;20045;-43
2023/07/24 05:56:47;;;;;;;;;;;23.80;85.50;;;;;;10454563;28;20076;-40
2023/07/24 06:01:50;;;;;;;8.73;2.90;;;23.90;86.30;;;;;;10445817;28;19925;-41
2023/07/24 06:06:52;;;;;;;10.77;3.22;;;23.40;89.50;;;;;;10453827;28;20573;-40
2023/07/24 06:11:53;;;;;;;;;;;22.90;91.00;;;;;;10442097;28;20593;-41
2023/07/24 06:16:57;;;;;;;5.43;2.43;;;22.70;92.30;;;;;;10447749;28;20023;-42
2023/07/24 06:21:58;;;;;;;7.95;2.80;;;22.80;92.00;;;;;;10449992;28;20068;-42
2023/07/24 06:27:00;;;;;;;6.80;2.88;;;22.60;92.80;;;;;;10455212;28;20456;-41
2023/07/24 06:32:04;;;;;;;4.82;2.30;;;23.20;90.50;;;;;;10455183;28;22140;-41
2023/07/24 06:37:06;;;;;;;8.98;3.13;;;23.40;90.20;;;;;;10449308;28;20052;-40
2023/07/24 06:42:08;;;;;;;3.10;1.80;;;22.80;92.20;;;;;;10450005;28;20562;-40
2023/07/24 06:47:11;;;;;;;;;;;23.70;87.70;;;;;;10450012;28;20535;-41
2023/07/24 06:52:13;;;;;;;6.18;2.42;;;23.20;91.10;;;;;;10446040;28;19967;-42
2023/07/24 06:57:15;;;;;;;5.22;2.05;;;23.40;89.70;;;;;;10455723;28;20072;-40
2023/07/24 07:02:18;;;;;;;7.93;2.53;;;23.50;89.20;;;;;;10448222;28;20488;-41
2023/07/24 07:07:20;;;;;;;5.60;2.22;;;23.10;90.60;;;;;;10460942;28;20413;-41
2023/07/24 07:12:22;;;;;;;7.22;2.75;;;22.40;93.20;;;;;;10441139;28;20155;-40
2023/07/24 07:17:25;;;;;;;9.20;2.30;;;21.70;95.40;;;;;;10446672;28;20053;-39
2023/07/24 07:22:27;;;;;;;7.55;2.70;;;22.20;94.60;;;;;;10437620;28;20482;-41
2023/07/24 07:27:29;;;;;;;5.47;2.80;;;21.40;97.10;;;;;;10439378;28;20140;-41
2023/07/24 07:32:33;;;;;;;;;;;22.10;95.10;;;;;;10444748;28;20143;-41
2023/07/24 07:37:34;;;;;;;9.90;3.80;;;22.10;94.30;;;;;;10458945;28;19925;-41
2023/07/24 07:42:36;;;;;;;7.47;2.45;;;22.20;95.10;;;;;;10446473;28;20072;-41
2023/07/24 07:47:39;;;;;;;8.27;3.03;;;22.20;94.70;;;;;;10447751;28;20362;-41
2023/07/24 07:52:42;;;;;;;6.68;2.80;;;21.70;96.50;;;;;;10448915;28;20136;-41
2023/07/24 07:57:44;;;;;;;9.30;2.95;;;22.10;94.50;;;;;;10448533;28;20099;-39
2023/07/24 08:02:47;;;;;;;7.65;2.95;;;22.10;94.90;;;;;;10458513;28;20158;-41
2023/07/24 08:07:49;;;;;;;4.95;2.53;;;21.90;95.30;;;;;;10454003;28;20555;-42
2023/07/24 08:12:51;;;;;;;12.30;2.42;;;21.90;95.90;;;;;;10455116;28;20084;-42
2023/07/24 08:17:54;;;;;;;10.40;2.60;;;21.80;96.20;;;;;;10455341;28;20494;-40
2023/07/24 08:22:56;;;;;;;7.10;3.28;;;22.30;94.10;;;;;;10472745;28;20134;-42
2023/07/24 08:27:57;;;;;;;7.60;2.67;;;22.10;94.80;;;;;;10453687;28;20140;-40
2023/07/24 08:33:01;;;;;;;2.88;2.17;;;21.60;96.20;;;;;;10453362;28;20155;-42
2023/07/24 08:38:03;;;;;;;7.00;2.40;;;22.10;95.10;;;;;;10456507;28;20053;-42
2023/07/24 08:43:05;;;;;;;5.40;2.97;;;22.60;93.60;;;;;;10456850;28;20131;-42
2023/07/24 08:48:10;;;;;;;13.00;2.83;;;22.60;93.40;;;;;;10468013;28;20087;-42
2023/07/24 08:53:14;;;;;;;6.32;2.78;;;22.40;94.40;;;;;;10459008;28;20140;-42
2023/07/24 08:58:16;;;;;;;5.57;2.28;;;22.30;94.60;;;;;;10455578;28;20044;-42
2023/07/24 09:03:19;;;;;;;7.72;3.03;;;21.40;97.10;;;;;;10459057;28;20053;-42
2023/07/24 09:08:30;;;;;;;2.63;2.17;;;21.50;97.20;;;;;;10463800;28;20522;-42
2023/07/24 09:13:32;;;;;;;9.50;2.50;;;22.10;95.00;;;;;;10453972;28;20140;-42
2023/07/24 09:18:41;;;;;;;4.68;2.53;;;21.90;95.70;;;;;;10452452;28;20534;-42
2023/07/24 09:23:43;;;;;;;10.82;3.08;;;21.70;96.00;;;;;;10459594;28;20052;-41
2023/07/24 09:28:53;;;;;;;5.85;2.70;;;22.10;94.80;;;;;;10452652;28;20076;-42
2023/07/24 09:33:56;;;;;;;5.25;2.45;;;21.80;96.00;;;;;;10454611;28;20045;-42
2023/07/24 09:39:02;;;;;;;12.93;3.00;;;22.70;93.00;;;;;;10452142;28;20091;-41
2023/07/24 09:44:04;;;;;;;7.93;2.95;;;21.90;95.60;;;;;;10450549;28;20037;-42
2023/07/24 09:49:08;;;;;;;8.27;2.72;;;22.00;95.30;;;;;;10462400;28;20079;-42
2023/07/24 09:54:16;;;;;;;8.70;2.97;;;22.70;93.00;;;;;;10461607;28;20152;-42
2023/07/24 09:59:19;;;;;;;5.43;2.97;;;23.40;90.40;;;;;;10438517;28;20040;-43
2023/07/24 10:04:24;;;;;;;6.78;2.30;;;23.30;90.50;;;;;;10456683;28;20144;-42
2023/07/24 10:09:26;;;;;;;5.22;3.35;;;22.50;93.70;;;;;;10455192;28;20044;-42
2023/07/24 10:14:29;;;;;;;4.65;2.05;;;22.60;93.00;;;;;;10450314;28;20057;-42
2023/07/24 10:19:39;;;;;;;7.03;2.83;;;23.10;91.90;;;;;;10453085;28;20124;-42
2023/07/24 10:24:41;;;;;;;4.13;2.53;;;23.00;92.10;;;;;;10451295;28;20099;-42
2023/07/24 10:29:46;;;;;;;6.18;2.42;;;23.40;90.90;;;;;;10451503;28;20049;-42
2023/07/24 10:35:00;;;;;;;5.00;2.63;;;23.10;93.10;;;;;;10456529;28;20049;-42
2023/07/24 10:40:03;;;;;;;5.43;2.80;;;22.50;94.00;;;;;;10439609;28;20417;-42
2023/07/24 10:45:06;;;;;;;6.57;3.17;;;22.60;93.30;;;;;;10446168;28;20045;-41
2023/07/24 10:50:10;;;;;;;5.40;2.92;;;23.10;91.60;;;;;;10448094;28;20054;-42
2023/07/24 10:55:12;;;;;;;5.28;3.25;;;22.60;93.00;;;;;;10445352;28;20397;-42
2023/07/24 11:00:14;;;;;;;3.90;2.20;;;23.00;92.10;;;;;;10453315;28;20098;-41
2023/07/24 11:05:19;;;;;;;5.75;2.00;;;22.40;93.70;;;;;;10453574;28;20061;-42
2023/07/24 11:10:23;;;;;;;6.72;2.42;;;22.30;96.00;;;;;;10457636;28;20102;-41
2023/07/24 11:15:26;;;;;;;2.30;1.98;;;22.80;92.60;;;;;;10437821;28;20534;-41
2023/07/24 11:20:30;;;;;;;3.67;1.88;;;22.90;92.90;;;;;;10454097;28;20413;-41
2023/07/24 11:25:33;;;;;;;3.47;1.50;;;23.60;90.00;;;;;;10458535;28;20424;-42
2023/07/24 11:30:35;;;;;;;4.30;1.45;;;22.90;92.80;;;;;;10447844;28;20041;-43
2023/07/24 11:35:40;;;;;;;4.50;1.30;;;23.50;91.20;;;;;;10474157;28;20131;-41
2023/07/24 11:40:44;;;;;;;1.10;1.00;;;22.90;93.00;;;;;;10458894;28;20041;-42
2023/07/24 11:45:48;;;;;;;2.95;1.40;;;22.90;91.90;;;;;;10452423;28;20055;-42
2023/07/24 11:50:54;;;;;;;1.45;1.05;;;23.30;91.70;;;;;;10475790;28;20045;-42
2023/07/24 11:55:57;;;;;;;3.78;1.02;;;23.20;91.20;;;;;;10457874;28;20048;-42
2023/07/24 12:00:59;;;;;;;1.85;1.20;;;23.70;87.70;;;;;;10465917;28;20053;-42
2023/07/24 12:06:04;;;;;;;1.38;0.93;;;23.10;90.60;;;;;;10455148;28;20122;-42
2023/07/24 12:11:16;;;;;;;3.35;0.95;;;23.70;88.80;;;;;;10462936;28;20045;-42
2023/07/24 12:16:18;;;;;;;2.92;0.90;;;23.10;91.50;;;;;;10451916;28;20076;-43
2023/07/24 12:21:21;;;;;;;2.75;0.90;;;22.70;93.20;;;;;;10469626;28;20097;-42
2023/07/24 12:26:25;;;;;;;4.25;1.00;;;23.20;91.60;;;;;;10457219;28;20079;-40
2023/07/24 12:31:26;;;;;;;1.70;0.82;;;23.10;92.40;;;;;;10455131;28;20041;-41
2023/07/24 12:36:30;;;;;;;;;;;23.60;89.70;;;;;;10453715;28;20490;-41
2023/07/24 12:41:32;;;;;;;4.38;1.00;;;22.70;92.50;;;;;;10454337;28;19975;-42
2023/07/24 12:46:33;;;;;;;;;;;23.30;91.20;;;;;;10453149;28;20129;-39
2023/07/24 12:51:36;;;;;;;4.67;0.80;;;23.10;91.90;;;;;;10463730;28;20448;-42
2023/07/24 12:56:38;;;;;;;2.42;1.00;;;22.90;92.40;;;;;;10451832;28;20666;-40
2023/07/24 13:01:40;;;;;;;4.85;1.38;;;24.20;86.00;;;;;;10453877;28;20136;-41
2023/07/24 13:06:44;;;;;;;1.92;0.55;;;22.70;92.10;;;;;;10458922;28;20068;-41
2023/07/24 13:11:48;;;;;;;5.00;0.90;;;22.80;92.40;;;;;;10469379;28;20084;-41
2023/07/24 13:16:50;;;;;;;7.65;0.88;;;23.30;90.00;;;;;;10455613;28;20053;-39
2023/07/24 13:21:55;;;;;;;4.00;0.85;;;23.50;87.80;;;;;;10449121;28;20601;-41
2023/07/24 13:26:57;;;;;;;3.17;0.73;;;23.70;88.10;;;;;;10448211;28;20557;-41
2023/07/24 13:31:58;;;;;;;;;;;22.90;92.30;;;;;;10451301;28;20315;-41
2023/07/24 13:37:02;;;;;;;2.43;0.63;;;23.60;87.90;;;;;;10451032;28;20031;-40
2023/07/24 13:42:04;;;;;;;6.03;0.85;;;22.70;90.90;;;;;;10449379;28;20041;-41
2023/07/24 13:47:06;;;;;;;5.35;1.10;;;23.30;87.30;;;;;;10449299;28;20047;-43
2023/07/24 13:52:09;;;;;;;6.50;1.20;;;22.30;93.40;;;;;;10449856;28;20053;-41
2023/07/24 13:57:11;;;;;;;5.15;1.33;;;23.40;88.90;;;;;;10445162;28;20050;-42
2023/07/24 14:02:13;;;;;;;2.67;0.90;;;23.60;87.60;;;;;;10453375;28;20075;-41
2023/07/24 14:07:16;;;;;;;;;;;23.80;86.60;;;;;;10459078;28;20143;-40
2023/07/24 14:12:18;;;;;;;7.00;1.10;;;23.90;85.40;;;;;;10455666;28;19960;-41
2023/07/24 14:17:20;;;;;;;6.18;0.88;;;23.50;87.30;;;;;;10453865;28;20060;-41
2023/07/24 14:22:23;;;;;;;2.63;0.60;;;23.70;84.50;;;;;;10447539;28;20079;-41
2023/07/24 14:27:25;;;;;;;3.63;0.73;;;24.10;83.50;;;;;;10454821;28;20135;-41
2023/07/24 14:32:26;;;;;;;;;;;24.10;80.70;;;;;;10446103;28;20137;-41
2023/07/24 14:37:30;;;;;;;1.08;0.38;;;24.60;79.30;;;;;;10452943;28;19925;-41
2023/07/24 14:42:34;;;;;;;3.30;0.52;;;24.60;79.50;;;;;;10456387;28;20122;-41
2023/07/24 14:47:35;;;;;;;2.63;0.50;;;24.60;74.40;;;;;;10448096;28;20045;-41
2023/07/24 14:52:39;;;;;;;;;;;25.00;76.40;;;;;;10446351;28;20136;-41
2023/07/24 14:57:40;;;;;;;2.05;0.47;;;24.30;77.60;;;;;;10446935;28;20027;-42
2023/07/24 15:02:42;;;;;;;;;;;24.70;76.70;;;;;;10453776;28;20041;-41
2023/07/24 15:07:45;;;;;;;2.17;0.38;;;24.70;76.50;;;;;;10448747;28;19956;-41
2023/07/24 15:12:47;;;;;;;3.63;0.73;;;24.30;76.90;;;;;;10458935;28;20072;-38
2023/07/24 15:17:49;;;;;;;0.82;0.50;;;23.50;80.50;;;;;;10450488;28;20080;-41
2023/07/24 15:22:53;;;;;;;2.10;0.70;;;25.20;73.70;;;;;;10449668;28;20079;-41
2023/07/24 15:27:55;;;;;;;2.10;0.38;;;24.70;74.80;;;;;;10455271;28;20049;-41
2023/07/24 15:32:56;;;;;;;;;;;24.60;76.20;;;;;;10445773;28;20174;-42
2023/07/24 15:38:01;;;;;;;5.00;0.80;;;25.00;73.00;;;;;;10439273;28;20361;-40
2023/07/24 15:43:03;;;;;;;5.40;0.93;;;23.60;69.60;;;;;;10446658;28;20056;-40
2023/07/24 15:48:05;;;;;;;;;;;23.90;75.40;;;;;;10443430;28;20446;-40
2023/07/24 15:53:08;;;;;;;2.22;0.90;;;24.20;76.50;;;;;;10447601;28;20285;-39
2023/07/24 15:58:10;;;;;;;2.65;0.90;;;23.60;78.80;;;;;;10443283;28;20078;-41
2023/07/24 16:03:12;;;;;;;2.05;0.63;;;23.40;71.10;;;;;;10446805;28;20041;-40
2023/07/24 16:08:15;;;;;;;;;;;23.40;76.90;;;;;;10447032;28;20489;-40
2023/07/24 16:13:17;;;;;;;3.70;1.08;;;23.50;75.60;;;;;;10453045;28;20010;-41
2023/07/24 16:18:22;;;;;;;;;;;24.80;68.60;;;;;;10436690;28;20156;-41
2023/07/24 16:23:25;;;;;;;5.47;1.25;;;25.00;69.60;;;;;;10449962;28;19921;-40
2023/07/24 16:28:27;;;;;;;3.78;1.00;;;24.70;70.80;;;;;;10446438;28;20044;-40
2023/07/24 16:33:29;;;;;;;5.50;1.30;;;24.90;65.40;;;;;;10446889;28;20493;-41
2023/07/24 16:38:32;;;;;;;8.60;1.60;;;25.40;67.00;;;;;;10447965;28;20045;-40
2023/07/24 16:43:34;;;;;;;3.00;0.90;;;25.10;66.60;;;;;;10452363;28;20122;-41
2023/07/24 16:48:37;;;;;;;6.53;1.02;;;25.60;65.50;;;;;;10452324;28;20132;-40
2023/07/24 16:53:40;;;;;;;4.35;0.90;;;25.80;64.90;;;;;;10452984;28;20066;-39
2023/07/24 16:58:42;;;;;;;7.50;0.90;;;25.50;65.50;;;;;;10451734;28;20563;-39
2023/07/24 17:03:44;;;;;;;3.13;0.90;;;25.60;64.80;;;;;;10454200;28;20615;-40
2023/07/24 17:08:47;;;;;;;4.40;0.77;;;25.30;66.00;;;;;;10453105;28;20049;-40
2023/07/24 17:13:49;;;;;;;2.13;0.70;;;25.50;65.40;;;;;;10454391;28;20057;-40
2023/07/24 17:18:54;;;;;;;3.67;1.08;;;24.50;69.30;;;;;;10451139;28;20135;-40
2023/07/24 17:23:57;;;;;;;2.63;0.82;;;25.50;65.50;;;;;;10456014;28;20144;-41
2023/07/24 17:29:01;;;;;;;3.53;0.90;;;25.00;67.20;;;;;;10453799;28;20045;-41
2023/07/24 17:34:04;;;;;;;2.22;0.70;;;25.00;67.30;;;;;;10458883;28;20041;-41
2023/07/24 17:39:08;;;;;;;5.40;0.82;;;25.60;65.20;;;;;;10452864;28;20048;-41
2023/07/24 17:44:12;;;;;;;8.95;1.23;;;23.70;72.10;;;;;;10455728;28;20107;-42
2023/07/24 17:49:14;;;;;;;4.82;0.90;;;24.50;67.40;;;;;;10449423;28;20045;-41
2023/07/24 17:54:17;;;;;;;;;;;24.90;66.30;;;;;;10455392;28;20531;-40
2023/07/24 17:59:19;;;;;;;4.07;0.77;;;25.10;65.70;;;;;;10447562;28;19999;-41
2023/07/24 18:04:21;;;;;;;4.38;0.70;;;25.40;64.60;;;;;;10481200;28;20053;-41
2023/07/24 18:09:24;;;;;;;2.83;0.55;;;25.40;64.20;;;;;;10451402;28;20083;-41
2023/07/24 18:14:26;;;;;;;2.28;0.90;;;25.50;63.20;;;;;;10452649;28;20085;-40
2023/07/24 18:19:28;;;;;;;4.10;0.90;;;25.20;63.20;;;;;;10448438;28;20474;-41
2023/07/24 18:24:31;;;;;;;;;;;25.40;63.00;;;;;;10455018;28;20453;-41
2023/07/24 18:29:33;;;;;;;3.20;0.60;;;25.50;62.00;;;;;;10444405;28;20274;-40
2023/07/24 18:34:35;;;;;;;2.65;0.75;;;25.80;61.60;;;;;;10449698;28;20049;-40
2023/07/24 18:39:39;;;;;;;2.03;0.57;;;25.60;62.00;;;;;;10451424;28;20676;-40
2023/07/24 18:44:41;;;;;;;4.65;0.93;;;25.40;59.70;;;;;;10446722;28;20048;-40
2023/07/24 18:49:43;;;;;;;1.83;0.70;;;26.00;60.50;;;;;;10448042;28;20114;-38
2023/07/24 18:54:47;;;;;;;4.38;0.88;;;25.80;61.30;;;;;;10447060;28;20056;-39
2023/07/24 18:59:49;;;;;;;6.00;0.88;;;25.60;57.90;;;;;;10451689;28;20409;-40
2023/07/24 19:04:51;;;;;;;3.25;0.95;;;25.90;60.30;;;;;;10452377;28;20130;-40
2023/07/24 19:09:55;;;;;;;4.80;1.02;;;25.80;60.50;;;;;;10450172;28;20045;-41
2023/07/24 19:14:57;;;;;;;7.28;2.20;;;25.60;60.50;;;;;;10446367;28;20447;-41
2023/07/24 19:19:58;;;;;;;3.63;1.00;;;24.70;56.40;;;;;;10447601;28;20059;-40
2023/07/24 19:25:03;;;;;;;;;;;25.50;60.90;;;;;;10453361;28;20056;-39
2023/07/24 19:30:07;;;;;;;7.65;0.80;;;25.60;60.50;;;;;;10446688;28;19928;-38
2023/07/24 19:35:09;;;;;;;3.13;1.00;;;25.70;60.00;;;;;;10451837;28;20056;-40
2023/07/24 19:40:13;;;;;;;4.07;0.85;;;25.70;59.70;;;;;;10442993;28;20053;-40
2023/07/24 19:45:15;;;;;;;5.57;1.42;;;25.50;59.70;;;;;;10449046;28;20055;-39
2023/07/24 19:50:17;;;;;;;4.22;0.93;;;25.70;59.40;;;;;;10439153;28;20068;-39
2023/07/24 19:55:20;;;;;;;3.17;0.75;;;25.70;59.10;;;;;;10447704;28;20077;-39
2023/07/24 20:00:22;;;;;;;5.30;1.10;;;25.70;58.90;;;;;;10451693;28;20055;-38
2023/07/24 20:05:24;;;;;;;2.28;0.70;;;25.60;58.70;;;;;;10456935;28;20160;-38
2023/07/24 20:10:29;;;;;;;3.70;1.17;;;25.60;58.80;;;;;;10446072;28;20072;-39
2023/07/24 20:15:31;;;;;;;3.53;0.90;;;25.60;58.90;;;;;;10447780;28;20045;-38
2023/07/24 20:20:33;;;;;;;5.88;1.38;;;25.60;59.00;;;;;;10449987;28;20818;-39
2023/07/24 20:25:39;;;;;;;5.38;0.88;;;25.60;58.90;;;;;;10448154;28;20068;-35
2023/07/24 20:30:41;;;;;;;3.08;0.80;;;25.60;58.90;;;;;;10448847;28;20131;-40
2023/07/24 20:35:44;;;;;;;3.05;0.75;;;25.50;58.90;;;;;;10446423;28;20086;-38
2023/07/24 20:40:48;;;;;;;5.40;1.15;;;25.50;59.00;;;;;;10445776;28;20139;-40
2023/07/24 20:45:51;;;;;;;3.58;0.88;;;25.40;59.10;;;;;;10447708;28;20071;-38
2023/07/24 20:50:53;;;;;;;4.28;0.98;;;25.40;59.30;;;;;;10448118;28;20067;-39
2023/07/24 20:55:56;;;;;;;6.03;0.75;;;25.50;59.20;;;;;;10449964;28;20049;-39
2023/07/24 21:00:58;;;;;;;3.58;0.80;;;25.40;59.20;;;;;;10451833;28;20132;-39
2023/07/24 21:06:00;;;;;;;3.53;0.77;;;25.40;59.20;;;;;;10439381;28;20061;-39
2023/07/24 21:11:03;;;;;;;3.80;1.10;;;25.40;59.30;;;;;;10441856;28;20135;-38
2023/07/24 21:16:05;;;;;;;6.05;0.95;;;25.40;59.40;;;;;;10437945;28;20509;-38
2023/07/24 21:21:08;;;;;;;3.05;0.70;;;25.30;59.70;;;;;;10437254;28;20111;-38
2023/07/24 21:26:13;;;;;;;1.15;0.68;;;25.30;59.70;;;;;;10444130;28;20149;-39
2023/07/24 21:31:14;;;;;;;2.22;0.73;;;25.30;59.70;;;;;;10434173;28;20051;-39
2023/07/24 21:36:16;;;;;;;2.22;0.50;;;25.30;59.80;;;;;;10434770;28;20523;-38
2023/07/24 21:41:20;;;;;;;5.15;0.70;;;25.20;59.80;;;;;;10435571;28;20136;-38
2023/07/24 21:46:23;;;;;;;3.35;0.80;;;25.00;60.20;;;;;;10420627;28;20612;-38
2023/07/24 21:51:24;;;;;;;2.05;0.68;;;25.20;60.00;;;;;;10435992;28;20072;-39
2023/07/24 21:56:29;;;;;;;4.85;0.90;;;25.20;60.00;;;;;;10438930;28;20076;-39
2023/07/24 22:01:31;;;;;;;1.42;0.60;;;25.20;60.00;;;;;;10429550;28;20563;-39
2023/07/24 22:06:33;;;;;;;1.80;0.55;;;25.20;60.60;;;;;;10441689;28;20130;-39
2023/07/24 22:11:37;;;;;;;1.08;0.45;;;25.10;59.10;;;;;;10439355;28;20059;-39
2023/07/24 22:16:38;;;;;;;2.45;0.60;;;25.00;60.10;;;;;;10444058;28;20468;-39
2023/07/24 22:21:40;;;;;;;1.90;0.50;;;25.10;60.20;;;;;;10442924;28;20045;-38
2023/07/24 22:26:43;;;;;;;1.80;0.63;;;25.00;60.20;;;;;;10448065;28;20125;-38
2023/07/24 22:31:45;;;;;;;2.10;0.80;;;24.90;60.40;;;;;;10447304;28;20132;-39
2023/07/24 22:36:47;;;;;;;2.00;0.70;;;24.90;60.40;;;;;;10446329;28;20143;-39
2023/07/24 22:41:50;;;;;;;2.78;0.60;;;24.90;60.30;;;;;;10449997;28;20673;-39
2023/07/24 22:46:52;;;;;;;1.27;0.57;;;24.90;60.40;;;;;;10446908;28;20049;-39
2023/07/24 22:51:54;;;;;;;3.05;0.75;;;24.90;60.30;;;;;;10446708;28;20103;-39
2023/07/24 22:56:57;;;;;;;2.53;0.85;;;24.90;60.80;;;;;;10452270;28;20130;-39
2023/07/24 23:01:59;;;;;;;3.13;0.88;;;24.80;60.10;;;;;;10460160;28;20139;-38
2023/07/24 23:07:01;;;;;;;3.38;0.70;;;24.70;60.60;;;;;;10450924;28;20045;-39
2023/07/24 23:12:05;;;;;;;2.75;0.80;;;24.70;60.50;;;;;;10445344;28;20167;-39
2023/07/24 23:17:06;;;;;;;3.53;1.13;;;24.60;60.80;;;;;;10454462;28;20041;-40
2023/07/24 23:22:08;;;;;;;2.78;0.82;;;24.50;61.20;;;;;;10447936;28;20719;-39
2023/07/24 23:27:12;;;;;;;1.67;0.50;;;24.20;62.10;;;;;;10442138;28;20079;-40
2023/07/24 23:32:13;;;;;;;2.45;0.73;;;24.20;61.80;;;;;;10452551;28;20322;-40
2023/07/24 23:37:15;;;;;;;2.47;0.70;;;24.50;61.50;;;;;;10452575;28;20080;-40
2023/07/24 23:42:18;;;;;;;;;;;24.30;61.50;;;;;;10455922;28;20068;-40
2023/07/24 23:47:20;;;;;;;2.28;0.52;;;24.50;61.10;;;;;;10448640;28;19927;-39
2023/07/24 23:52:22;;;;;;;;;;;24.50;60.80;;;;;;10453382;28;20490;-40
2023/07/24 23:57:27;;;;;;;3.10;0.75;;;24.60;60.90;;;;;;10448316;28;19928;-39
